Disclaimer

Please do not use the information listed here in-flight or in-navigation, as they are not provided to us by the airports but are provided by volunteers, so they might be outdated.

Search


Regions


Airport information page

Radio informations:
Tower (TWR) - 123.8 MHz
Ground (GND) - 121.725 MHz
Director (DIR) - 126.95 MHz
Automatic Terminal Information Service (ATIS) - 127.175 MHz

Airport informations:
Latitude: 51° 53' 06.00" N
Longitude: 000° 14' 06.00" E
Elevation: 348 feet - 106 meters
Operating hours: 24 hour operations
Operating agency: Civil government, landing fees and diplomatic clearance may be required
Timezone: UTC 0(+1DT) - Last Sunday in March to last Sunday in October
Fuel: Jet A1, without icing nhibitor.

Runway information:
05/23 - 10000 x 150 feet< - >3048 x 46 meters

Recent METARs:
EGSS 191950Z AUTO 05011KT 9999 FEW023/// BKN046/// //////TCU 05/03 Q1017
EGSS 192020Z AUTO 05013KT 9999 FEW025/// SCT042/// //////TCU 05/02 Q1016
EGSS 192050Z AUTO 06010KT 9999 SCT025/// BKN032/// BKN040/// //////TCU 04/02 Q1016

Airport on the map: